QAK003 MMMX-MMUN
Flight info
| Callsign | QAK003 |
|---|---|
| Flight time | N/A |
| Altitude | 37000 |
| Route | UKUN3A/05L UKUNO UT108 TEVET DCT GOTAS DCT DANIS UT65 PAULE PAULE3G |
| Aircraft | A320/M-SDE3FGHIRWY/LB1 |
Departure
| Time | N/A |
|---|---|
| Airport | Mexico City Benito Juárez International Airport (MMMX) |
Arrival
| Time | 2026-05-03 21:52 |
|---|---|
| Airport | Cancún International Airport (MMUN) |
| Time | Latitude | Longitude | Altitude | Speed | Heading |
|---|---|---|---|---|---|
| 2026-05-03 20:15 | 19.39778 | -97.64288 | 27344 ft | 473 kts | 94° |
| 2026-05-03 20:15 | 19.39441 | -97.60818 | 27591 ft | 475 kts | 94° |
| 2026-05-03 20:15 | 19.39103 | -97.57334 | 27859 ft | 477 kts | 94° |
| 2026-05-03 20:15 | 19.38757 | -97.53832 | 28086 ft | 479 kts | 94° |
| 2026-05-03 20:16 | 19.38412 | -97.50356 | 28318 ft | 481 kts | 94° |
| 2026-05-03 20:16 | 19.38062 | -97.46824 | 28547 ft | 483 kts | 94° |
| 2026-05-03 20:16 | 19.37710 | -97.43276 | 28778 ft | 485 kts | 94° |
| 2026-05-03 20:16 | 19.37356 | -97.39717 | 28976 ft | 487 kts | 94° |
| 2026-05-03 20:17 | 19.37001 | -97.36141 | 29186 ft | 489 kts | 94° |
| 2026-05-03 20:17 | 19.36644 | -97.32555 | 29389 ft | 491 kts | 94° |
| 2026-05-03 20:17 | 19.36285 | -97.28956 | 29625 ft | 492 kts | 94° |
| 2026-05-03 20:17 | 19.35922 | -97.25343 | 29825 ft | 494 kts | 94° |
| 2026-05-03 20:18 | 19.35558 | -97.21723 | 30016 ft | 496 kts | 95° |
| 2026-05-03 20:18 | 19.35194 | -97.18087 | 30188 ft | 497 kts | 94° |
| 2026-05-03 20:18 | 19.34830 | -97.14445 | 30338 ft | 498 kts | 95° |
| 2026-05-03 20:18 | 19.34462 | -97.10796 | 30588 ft | 498 kts | 95° |
| 2026-05-03 20:19 | 19.34094 | -97.07161 | 30829 ft | 497 kts | 95° |
| 2026-05-03 20:19 | 19.33808 | -97.03518 | 31048 ft | 495 kts | 89° |
| 2026-05-03 20:19 | 19.33744 | -96.99884 | 31294 ft | 494 kts | 89° |
| 2026-05-03 20:19 | 19.33684 | -96.96255 | 31541 ft | 493 kts | 89° |
| 2026-05-03 20:20 | 19.33628 | -96.92695 | 31781 ft | 491 kts | 89° |
| 2026-05-03 20:20 | 19.33571 | -96.89084 | 32023 ft | 491 kts | 89° |
| 2026-05-03 20:20 | 19.33512 | -96.85470 | 32269 ft | 490 kts | 89° |
| 2026-05-03 20:20 | 19.33450 | -96.81874 | 32506 ft | 489 kts | 89° |
| 2026-05-03 20:21 | 19.33407 | -96.79490 | 32665 ft | 489 kts | 89° |
| 2026-05-03 20:21 | 19.33315 | -96.74686 | 32999 ft | 487 kts | 89° |
| 2026-05-03 20:21 | 19.33270 | -96.72311 | 33163 ft | 487 kts | 89° |
| 2026-05-03 20:21 | 19.33203 | -96.68734 | 33436 ft | 486 kts | 89° |
| 2026-05-03 20:22 | 19.33136 | -96.65165 | 33758 ft | 484 kts | 89° |
| 2026-05-03 20:22 | 19.33068 | -96.61607 | 34011 ft | 483 kts | 89° |
| 2026-05-03 20:22 | 19.33003 | -96.58058 | 34245 ft | 482 kts | 89° |
| 2026-05-03 20:22 | 19.32939 | -96.54505 | 34477 ft | 481 kts | 89° |
| 2026-05-03 20:23 | 19.32872 | -96.50964 | 34693 ft | 481 kts | 90° |
| 2026-05-03 20:23 | 19.32804 | -96.47430 | 34917 ft | 480 kts | 90° |
| 2026-05-03 20:23 | 19.32736 | -96.43898 | 35120 ft | 480 kts | 90° |
| 2026-05-03 20:23 | 19.32665 | -96.40367 | 35309 ft | 480 kts | 90° |
| 2026-05-03 20:24 | 19.32593 | -96.36840 | 35505 ft | 479 kts | 90° |
| 2026-05-03 20:24 | 19.32519 | -96.33317 | 35703 ft | 479 kts | 90° |
| 2026-05-03 20:24 | 19.32443 | -96.29795 | 35902 ft | 478 kts | 90° |
| 2026-05-03 20:24 | 19.32368 | -96.26280 | 36086 ft | 477 kts | 90° |
| 2026-05-03 20:25 | 19.32292 | -96.22769 | 36267 ft | 477 kts | 90° |
| 2026-05-03 20:25 | 19.32218 | -96.19264 | 36445 ft | 476 kts | 90° |
| 2026-05-03 20:25 | 19.32145 | -96.15769 | 36614 ft | 475 kts | 91° |
| 2026-05-03 20:25 | 19.32072 | -96.12271 | 36777 ft | 475 kts | 91° |
| 2026-05-03 20:26 | 19.31998 | -96.08783 | 36951 ft | 474 kts | 91° |
| 2026-05-03 20:26 | 19.31923 | -96.05296 | 37069 ft | 475 kts | 91° |
| 2026-05-03 20:26 | 19.31846 | -96.01792 | 37091 ft | 478 kts | 91° |
| 2026-05-03 20:27 | 19.31689 | -95.94729 | 37078 ft | 482 kts | 91° |
| 2026-05-03 20:27 | 19.31529 | -95.87646 | 37071 ft | 482 kts | 91° |
| 2026-05-03 20:28 | 19.31366 | -95.80559 | 37072 ft | 481 kts | 91° |
| 2026-05-03 20:28 | 19.31207 | -95.73462 | 37081 ft | 483 kts | 91° |
| 2026-05-03 20:29 | 19.31034 | -95.66397 | 37078 ft | 484 kts | 91° |
| 2026-05-03 20:29 | 19.30860 | -95.59275 | 37066 ft | 485 kts | 91° |
| 2026-05-03 20:30 | 19.30687 | -95.52138 | 37069 ft | 485 kts | 91° |
| 2026-05-03 20:30 | 19.30509 | -95.45000 | 37073 ft | 485 kts | 91° |
| 2026-05-03 20:31 | 19.30328 | -95.37859 | 37074 ft | 485 kts | 91° |
| 2026-05-03 20:31 | 19.30145 | -95.30713 | 37073 ft | 485 kts | 92° |
| 2026-05-03 20:32 | 19.29953 | -95.23574 | 37075 ft | 485 kts | 92° |
| 2026-05-03 20:32 | 19.29761 | -95.16445 | 37075 ft | 484 kts | 92° |
| 2026-05-03 20:33 | 19.29565 | -95.09321 | 37071 ft | 484 kts | 92° |
| 2026-05-03 20:33 | 19.29402 | -95.02200 | 37068 ft | 484 kts | 90° |
| 2026-05-03 20:34 | 19.29443 | -94.95080 | 37066 ft | 484 kts | 89° |
| 2026-05-03 20:34 | 19.29554 | -94.87965 | 37072 ft | 483 kts | 89° |
| 2026-05-03 20:35 | 19.29613 | -94.80860 | 37067 ft | 482 kts | 90° |
| 2026-05-03 20:35 | 19.29628 | -94.73767 | 37066 ft | 482 kts | 90° |
| 2026-05-03 20:36 | 19.29645 | -94.66670 | 37061 ft | 482 kts | 90° |
| 2026-05-03 20:36 | 19.29662 | -94.59579 | 37060 ft | 482 kts | 90° |
| 2026-05-03 20:37 | 19.29679 | -94.52486 | 37052 ft | 482 kts | 90° |
| 2026-05-03 20:37 | 19.29697 | -94.45391 | 37050 ft | 482 kts | 90° |
| 2026-05-03 20:38 | 19.29713 | -94.38297 | 37046 ft | 482 kts | 90° |
| 2026-05-03 20:38 | 19.29727 | -94.31202 | 37045 ft | 482 kts | 90° |
| 2026-05-03 20:39 | 19.29740 | -94.24100 | 37045 ft | 482 kts | 90° |
| 2026-05-03 20:39 | 19.29743 | -94.17006 | 37039 ft | 482 kts | 90° |
| 2026-05-03 20:40 | 19.29745 | -94.09914 | 37040 ft | 481 kts | 91° |
| 2026-05-03 20:40 | 19.29738 | -94.02831 | 37042 ft | 481 kts | 91° |
| 2026-05-03 20:41 | 19.29729 | -93.95753 | 37041 ft | 481 kts | 91° |
| 2026-05-03 20:41 | 19.29725 | -93.88678 | 37039 ft | 481 kts | 90° |
| 2026-05-03 20:42 | 19.29721 | -93.81608 | 37037 ft | 480 kts | 91° |
| 2026-05-03 20:42 | 19.29706 | -93.74542 | 37036 ft | 480 kts | 91° |
| 2026-05-03 20:43 | 19.29692 | -93.67530 | 37040 ft | 479 kts | 91° |
| 2026-05-03 20:43 | 19.29672 | -93.60479 | 37038 ft | 479 kts | 91° |
| 2026-05-03 20:44 | 19.29654 | -93.53437 | 37036 ft | 479 kts | 91° |
| 2026-05-03 20:44 | 19.29638 | -93.46391 | 37032 ft | 478 kts | 91° |
| 2026-05-03 20:45 | 19.29616 | -93.39348 | 37030 ft | 478 kts | 91° |
| 2026-05-03 20:45 | 19.29589 | -93.32311 | 37025 ft | 478 kts | 91° |
| 2026-05-03 20:46 | 19.29557 | -93.25273 | 37023 ft | 478 kts | 91° |
| 2026-05-03 20:46 | 19.29525 | -93.18235 | 37026 ft | 478 kts | 91° |
| 2026-05-03 20:47 | 19.29486 | -93.11200 | 37024 ft | 478 kts | 91° |
| 2026-05-03 20:47 | 19.29449 | -93.04163 | 37025 ft | 478 kts | 91° |
| 2026-05-03 20:48 | 19.29411 | -92.97126 | 37021 ft | 478 kts | 91° |
| 2026-05-03 20:48 | 19.29367 | -92.90078 | 37021 ft | 479 kts | 91° |
| 2026-05-03 20:49 | 19.29318 | -92.83037 | 37020 ft | 479 kts | 91° |
| 2026-05-03 20:49 | 19.29266 | -92.75995 | 37019 ft | 479 kts | 91° |
| 2026-05-03 20:50 | 19.29217 | -92.68945 | 37014 ft | 479 kts | 91° |
| 2026-05-03 20:50 | 19.29165 | -92.61893 | 37006 ft | 479 kts | 91° |
| 2026-05-03 20:51 | 19.29111 | -92.54831 | 37002 ft | 480 kts | 91° |
| 2026-05-03 20:51 | 19.29054 | -92.47759 | 37003 ft | 481 kts | 91° |
| 2026-05-03 20:52 | 19.28991 | -92.40683 | 37001 ft | 481 kts | 91° |
| 2026-05-03 20:52 | 19.28925 | -92.33599 | 37003 ft | 481 kts | 91° |
| 2026-05-03 20:53 | 19.28854 | -92.26512 | 37008 ft | 481 kts | 91° |
| 2026-05-03 20:53 | 19.28776 | -92.19428 | 37008 ft | 481 kts | 91° |
| 2026-05-03 20:54 | 19.28701 | -92.12342 | 37004 ft | 481 kts | 91° |
| 2026-05-03 20:54 | 19.28592 | -92.01715 | 37005 ft | 481 kts | 91° |
| 2026-05-03 20:55 | 19.28509 | -91.94629 | 37006 ft | 481 kts | 91° |
| 2026-05-03 20:55 | 19.28430 | -91.87543 | 37001 ft | 482 kts | 91° |
| 2026-05-03 20:56 | 19.28344 | -91.80443 | 36990 ft | 483 kts | 91° |
| 2026-05-03 20:56 | 19.28257 | -91.73336 | 36990 ft | 483 kts | 91° |
| 2026-05-03 20:57 | 19.28160 | -91.66222 | 36985 ft | 484 kts | 92° |
| 2026-05-03 20:57 | 19.28060 | -91.59100 | 36989 ft | 484 kts | 92° |
| 2026-05-03 20:58 | 19.27964 | -91.52022 | 36986 ft | 484 kts | 92° |
| 2026-05-03 20:58 | 19.27866 | -91.44843 | 36973 ft | 485 kts | 92° |
| 2026-05-03 20:59 | 19.27763 | -91.37740 | 36971 ft | 486 kts | 92° |
| 2026-05-03 20:59 | 19.27651 | -91.30533 | 36974 ft | 487 kts | 92° |
| 2026-05-03 21:00 | 19.27577 | -91.25783 | 36976 ft | 487 kts | 92° |
| 2026-05-03 21:00 | 19.27431 | -91.16186 | 36979 ft | 488 kts | 92° |
| 2026-05-03 21:01 | 19.27323 | -91.09062 | 36982 ft | 488 kts | 92° |
| 2026-05-03 21:01 | 19.27206 | -91.01881 | 36984 ft | 488 kts | 92° |
| 2026-05-03 21:02 | 19.27078 | -90.94703 | 36986 ft | 488 kts | 92° |
| 2026-05-03 21:02 | 19.26950 | -90.87523 | 36984 ft | 488 kts | 92° |
| 2026-05-03 21:03 | 19.26830 | -90.80346 | 36984 ft | 488 kts | 92° |
| 2026-05-03 21:03 | 19.26705 | -90.73169 | 36981 ft | 487 kts | 92° |
| 2026-05-03 21:04 | 19.26573 | -90.66003 | 36985 ft | 487 kts | 92° |
| 2026-05-03 21:04 | 19.26436 | -90.58841 | 36983 ft | 487 kts | 92° |
| 2026-05-03 21:05 | 19.26298 | -90.51681 | 36979 ft | 486 kts | 92° |
| 2026-05-03 21:05 | 19.26159 | -90.44528 | 36976 ft | 486 kts | 92° |
| 2026-05-03 21:06 | 19.26012 | -90.37373 | 36973 ft | 486 kts | 92° |
| 2026-05-03 21:06 | 19.25868 | -90.30215 | 36953 ft | 487 kts | 92° |
| 2026-05-03 21:07 | 19.25748 | -90.24255 | 36957 ft | 488 kts | 92° |
| 2026-05-03 21:07 | 19.25597 | -90.17077 | 36957 ft | 488 kts | 92° |
| 2026-05-03 21:08 | 19.25439 | -90.09898 | 36950 ft | 488 kts | 92° |
| 2026-05-03 21:08 | 19.25280 | -90.02718 | 36952 ft | 488 kts | 92° |
| 2026-05-03 21:09 | 19.25130 | -89.95536 | 36951 ft | 489 kts | 92° |
| 2026-05-03 21:09 | 19.24968 | -89.88331 | 36943 ft | 490 kts | 92° |
| 2026-05-03 21:10 | 19.24793 | -89.81109 | 36943 ft | 491 kts | 92° |
| 2026-05-03 21:10 | 19.24617 | -89.73878 | 36945 ft | 492 kts | 92° |
| 2026-05-03 21:11 | 19.24455 | -89.66643 | 36947 ft | 492 kts | 92° |
| 2026-05-03 21:11 | 19.24289 | -89.59410 | 36947 ft | 492 kts | 92° |
| 2026-05-03 21:12 | 19.24461 | -89.52183 | 36944 ft | 493 kts | 81° |
| 2026-05-03 21:12 | 19.26168 | -89.45174 | 36944 ft | 493 kts | 73° |
| 2026-05-03 21:13 | 19.28103 | -89.38217 | 36943 ft | 493 kts | 73° |
| 2026-05-03 21:13 | 19.30032 | -89.31249 | 36945 ft | 493 kts | 73° |
| 2026-05-03 21:14 | 19.31957 | -89.24282 | 36944 ft | 493 kts | 73° |
| 2026-05-03 21:14 | 19.33871 | -89.17305 | 36939 ft | 494 kts | 73° |
| 2026-05-03 21:15 | 19.35790 | -89.10320 | 36938 ft | 494 kts | 73° |
| 2026-05-03 21:15 | 19.37706 | -89.03382 | 36939 ft | 494 kts | 73° |
| 2026-05-03 21:16 | 19.39649 | -88.96341 | 36946 ft | 495 kts | 73° |
| 2026-05-03 21:16 | 19.41557 | -88.89393 | 36943 ft | 495 kts | 73° |
| 2026-05-03 21:17 | 19.43163 | -88.83523 | 36952 ft | 495 kts | 73° |
| 2026-05-03 21:17 | 19.45382 | -88.75381 | 36952 ft | 495 kts | 73° |
| 2026-05-03 21:18 | 19.47297 | -88.68369 | 36948 ft | 496 kts | 73° |
| 2026-05-03 21:18 | 19.49207 | -88.61349 | 36943 ft | 496 kts | 73° |
| 2026-05-03 21:19 | 19.51111 | -88.54319 | 36941 ft | 497 kts | 73° |
| 2026-05-03 21:19 | 19.53021 | -88.47282 | 36945 ft | 497 kts | 73° |
| 2026-05-03 21:20 | 19.54945 | -88.40247 | 36940 ft | 497 kts | 73° |
| 2026-05-03 21:20 | 19.56865 | -88.33201 | 36939 ft | 497 kts | 73° |
| 2026-05-03 21:21 | 19.58771 | -88.26149 | 36942 ft | 497 kts | 73° |
| 2026-05-03 21:21 | 19.59727 | -88.22605 | 36784 ft | 504 kts | 73° |
| 2026-05-03 21:21 | 19.60688 | -88.19029 | 36525 ft | 505 kts | 73° |
| 2026-05-03 21:22 | 19.61649 | -88.15448 | 36333 ft | 503 kts | 73° |
| 2026-05-03 21:22 | 19.62601 | -88.11899 | 36258 ft | 499 kts | 73° |
| 2026-05-03 21:22 | 19.64488 | -88.04871 | 36109 ft | 492 kts | 73° |
| 2026-05-03 21:23 | 19.66371 | -87.97860 | 35984 ft | 500 kts | 73° |
| 2026-05-03 21:23 | 19.67326 | -87.94311 | 35246 ft | 500 kts | 73° |
| 2026-05-03 21:23 | 19.68277 | -87.90768 | 34068 ft | 499 kts | 73° |
| 2026-05-03 21:24 | 19.69222 | -87.87247 | 32990 ft | 493 kts | 73° |
| 2026-05-03 21:24 | 19.70153 | -87.83769 | 31980 ft | 487 kts | 73° |
| 2026-05-03 21:24 | 19.71067 | -87.80346 | 31267 ft | 475 kts | 74° |
| 2026-05-03 21:24 | 19.71960 | -87.77000 | 30671 ft | 471 kts | 74° |
| 2026-05-03 21:25 | 19.72841 | -87.73699 | 30029 ft | 471 kts | 74° |
| 2026-05-03 21:25 | 19.73731 | -87.70358 | 29355 ft | 470 kts | 74° |
| 2026-05-03 21:25 | 19.74604 | -87.67074 | 28741 ft | 467 kts | 74° |
| 2026-05-03 21:25 | 19.75483 | -87.63769 | 28125 ft | 464 kts | 74° |
| 2026-05-03 21:26 | 19.76357 | -87.60485 | 27512 ft | 461 kts | 74° |
| 2026-05-03 21:26 | 19.77224 | -87.57218 | 26902 ft | 459 kts | 74° |
| 2026-05-03 21:26 | 19.78088 | -87.53961 | 26295 ft | 457 kts | 74° |
| 2026-05-03 21:26 | 19.78947 | -87.50725 | 25699 ft | 454 kts | 74° |
| 2026-05-03 21:27 | 19.79798 | -87.47508 | 25126 ft | 452 kts | 73° |
| 2026-05-03 21:27 | 19.80646 | -87.44304 | 24560 ft | 449 kts | 73° |
| 2026-05-03 21:27 | 19.81730 | -87.41214 | 24014 ft | 445 kts | 63° |
| 2026-05-03 21:27 | 19.83282 | -87.38440 | 23700 ft | 434 kts | 52° |
| 2026-05-03 21:28 | 19.85058 | -87.35893 | 23352 ft | 425 kts | 52° |
| 2026-05-03 21:28 | 19.86798 | -87.33380 | 23012 ft | 419 kts | 52° |
| 2026-05-03 21:28 | 19.88514 | -87.30886 | 22756 ft | 417 kts | 52° |
| 2026-05-03 21:28 | 19.90220 | -87.28404 | 22497 ft | 415 kts | 52° |
| 2026-05-03 21:29 | 19.91918 | -87.25929 | 22250 ft | 413 kts | 52° |
| 2026-05-03 21:29 | 19.93608 | -87.23468 | 22145 ft | 412 kts | 52° |
| 2026-05-03 21:29 | 19.95296 | -87.21017 | 22011 ft | 411 kts | 52° |
| 2026-05-03 21:29 | 19.96986 | -87.18569 | 21886 ft | 410 kts | 52° |
| 2026-05-03 21:30 | 19.98670 | -87.16130 | 21757 ft | 409 kts | 52° |
| 2026-05-03 21:30 | 20.00351 | -87.13692 | 21638 ft | 408 kts | 52° |
| 2026-05-03 21:30 | 20.02027 | -87.11258 | 21516 ft | 407 kts | 52° |
| 2026-05-03 21:30 | 20.03698 | -87.08830 | 21392 ft | 406 kts | 52° |
| 2026-05-03 21:31 | 20.05366 | -87.06406 | 21268 ft | 406 kts | 52° |
| 2026-05-03 21:31 | 20.07029 | -87.03988 | 21140 ft | 405 kts | 52° |
| 2026-05-03 21:31 | 20.08686 | -87.01576 | 21026 ft | 404 kts | 52° |
| 2026-05-03 21:31 | 20.10423 | -86.99237 | 20867 ft | 400 kts | 44° |
| 2026-05-03 21:32 | 20.12568 | -86.97459 | 20310 ft | 384 kts | 25° |
| 2026-05-03 21:32 | 20.14996 | -86.96481 | 19857 ft | 365 kts | 8° |
| 2026-05-03 21:32 | 20.17440 | -86.96240 | 19497 ft | 345 kts | 354° |
| 2026-05-03 21:32 | 20.19793 | -86.96561 | 18979 ft | 338 kts | 348° |
| 2026-05-03 21:33 | 20.22104 | -86.96974 | 18482 ft | 336 kts | 348° |
| 2026-05-03 21:33 | 20.24401 | -86.97383 | 18083 ft | 334 kts | 348° |
| 2026-05-03 21:33 | 20.26695 | -86.97792 | 17640 ft | 334 kts | 348° |
| 2026-05-03 21:33 | 20.28971 | -86.98196 | 17214 ft | 334 kts | 348° |
| 2026-05-03 21:34 | 20.31250 | -86.98602 | 16796 ft | 333 kts | 348° |
| 2026-05-03 21:34 | 20.33540 | -86.99013 | 16378 ft | 333 kts | 348° |
| 2026-05-03 21:34 | 20.35799 | -86.99418 | 16109 ft | 328 kts | 349° |
| 2026-05-03 21:34 | 20.38072 | -86.99825 | 15674 ft | 329 kts | 349° |
| 2026-05-03 21:35 | 20.40303 | -87.00219 | 15477 ft | 322 kts | 349° |
| 2026-05-03 21:35 | 20.42488 | -87.00606 | 14931 ft | 317 kts | 349° |
| 2026-05-03 21:35 | 20.44659 | -87.00994 | 14396 ft | 317 kts | 349° |
| 2026-05-03 21:35 | 20.46832 | -87.01383 | 13952 ft | 315 kts | 349° |
| 2026-05-03 21:36 | 20.48982 | -87.01768 | 13518 ft | 311 kts | 349° |
| 2026-05-03 21:36 | 20.51105 | -87.02148 | 13105 ft | 309 kts | 349° |
| 2026-05-03 21:36 | 20.53234 | -87.02529 | 12689 ft | 312 kts | 349° |
| 2026-05-03 21:36 | 20.55365 | -87.02908 | 12395 ft | 308 kts | 349° |
| 2026-05-03 21:37 | 20.57454 | -87.03279 | 12062 ft | 301 kts | 348° |
| 2026-05-03 21:37 | 20.59498 | -87.03639 | 11882 ft | 293 kts | 349° |
| 2026-05-03 21:37 | 20.61494 | -87.03993 | 11752 ft | 289 kts | 349° |
| 2026-05-03 21:37 | 20.63456 | -87.04341 | 11630 ft | 282 kts | 351° |
| 2026-05-03 21:38 | 20.65357 | -87.04681 | 11487 ft | 270 kts | 349° |
| 2026-05-03 21:38 | 20.67176 | -87.05007 | 11156 ft | 262 kts | 349° |
| 2026-05-03 21:38 | 20.68972 | -87.05328 | 10674 ft | 259 kts | 349° |
| 2026-05-03 21:38 | 20.70735 | -87.05645 | 10188 ft | 257 kts | 349° |
| 2026-05-03 21:39 | 20.72477 | -87.05957 | 10000 ft | 255 kts | 349° |
| 2026-05-03 21:39 | 20.74239 | -87.06275 | 9526 ft | 256 kts | 349° |
| 2026-05-03 21:39 | 20.75986 | -87.06588 | 9087 ft | 254 kts | 349° |
| 2026-05-03 21:39 | 20.77729 | -87.06901 | 8670 ft | 255 kts | 349° |
| 2026-05-03 21:40 | 20.79483 | -87.07214 | 8230 ft | 257 kts | 349° |
| 2026-05-03 21:40 | 20.81226 | -87.07526 | 7876 ft | 254 kts | 349° |
| 2026-05-03 21:40 | 20.82970 | -87.07836 | 7544 ft | 255 kts | 347° |
| 2026-05-03 21:40 | 20.84790 | -87.08156 | 7119 ft | 269 kts | 349° |
| 2026-05-03 21:41 | 20.86639 | -87.08484 | 7013 ft | 272 kts | 348° |
| 2026-05-03 21:41 | 20.88490 | -87.08822 | 6883 ft | 267 kts | 348° |
| 2026-05-03 21:41 | 20.90292 | -87.09151 | 6773 ft | 258 kts | 348° |
| 2026-05-03 21:41 | 20.92047 | -87.09467 | 6644 ft | 252 kts | 348° |
| 2026-05-03 21:42 | 20.93734 | -87.09772 | 6511 ft | 239 kts | 348° |
| 2026-05-03 21:42 | 20.95309 | -87.10052 | 6398 ft | 219 kts | 349° |
| 2026-05-03 21:42 | 20.96755 | -87.10309 | 6179 ft | 205 kts | 349° |
| 2026-05-03 21:42 | 20.98144 | -87.10559 | 5800 ft | 201 kts | 349° |
| 2026-05-03 21:43 | 20.99518 | -87.10808 | 5337 ft | 201 kts | 348° |
| 2026-05-03 21:43 | 21.00915 | -87.11060 | 4829 ft | 206 kts | 348° |
| 2026-05-03 21:43 | 21.02338 | -87.11318 | 4298 ft | 210 kts | 349° |
| 2026-05-03 21:43 | 21.03792 | -87.11578 | 3753 ft | 214 kts | 350° |
| 2026-05-03 21:44 | 21.05264 | -87.11840 | 3342 ft | 212 kts | 350° |
| 2026-05-03 21:44 | 21.06684 | -87.12090 | 3158 ft | 200 kts | 350° |
| 2026-05-03 21:44 | 21.07993 | -87.12511 | 3065 ft | 196 kts | 333° |
| 2026-05-03 21:44 | 21.09077 | -87.13343 | 2997 ft | 194 kts | 316° |
| 2026-05-03 21:45 | 21.10224 | -87.14108 | 2972 ft | 192 kts | 349° |
| 2026-05-03 21:45 | 21.11469 | -87.14013 | 2978 ft | 179 kts | 20° |
| 2026-05-03 21:45 | 21.12499 | -87.13303 | 3011 ft | 173 kts | 46° |
| 2026-05-03 21:45 | 21.13190 | -87.12276 | 3007 ft | 172 kts | 56° |
| 2026-05-03 21:46 | 21.13863 | -87.11222 | 2999 ft | 171 kts | 56° |
| 2026-05-03 21:46 | 21.14537 | -87.10173 | 2995 ft | 171 kts | 55° |
| 2026-05-03 21:46 | 21.15218 | -87.09111 | 2992 ft | 171 kts | 55° |
| 2026-05-03 21:46 | 21.15816 | -87.08015 | 2985 ft | 171 kts | 68° |
| 2026-05-03 21:47 | 21.16091 | -87.06801 | 2992 ft | 171 kts | 85° |
| 2026-05-03 21:47 | 21.16014 | -87.05520 | 2990 ft | 171 kts | 102° |
| 2026-05-03 21:47 | 21.15558 | -87.04369 | 2992 ft | 171 kts | 121° |
| 2026-05-03 21:47 | 21.14913 | -87.03280 | 2991 ft | 171 kts | 123° |
| 2026-05-03 21:48 | 21.14259 | -87.02214 | 2932 ft | 171 kts | 123° |
| 2026-05-03 21:48 | 21.13602 | -87.01156 | 2762 ft | 170 kts | 123° |
| 2026-05-03 21:48 | 21.12948 | -87.00106 | 2566 ft | 169 kts | 123° |
| 2026-05-03 21:48 | 21.12299 | -86.99065 | 2354 ft | 167 kts | 123° |
| 2026-05-03 21:49 | 21.11655 | -86.98034 | 2139 ft | 166 kts | 123° |
| 2026-05-03 21:49 | 21.11014 | -86.97007 | 1930 ft | 166 kts | 123° |
| 2026-05-03 21:49 | 21.10372 | -86.95979 | 1718 ft | 166 kts | 123° |
| 2026-05-03 21:49 | 21.09948 | -86.95300 | 1576 ft | 166 kts | 123° |
| 2026-05-03 21:50 | 21.09307 | -86.94274 | 1378 ft | 165 kts | 124° |
| 2026-05-03 21:50 | 21.08669 | -86.93253 | 1166 ft | 165 kts | 124° |
| 2026-05-03 21:50 | 21.08035 | -86.92239 | 959 ft | 163 kts | 124° |
| 2026-05-03 21:50 | 21.07408 | -86.91236 | 749 ft | 162 kts | 123° |
| 2026-05-03 21:51 | 21.06783 | -86.90236 | 550 ft | 161 kts | 124° |
| 2026-05-03 21:51 | 21.06160 | -86.89239 | 329 ft | 161 kts | 124° |
| 2026-05-03 21:51 | 21.05535 | -86.88242 | 115 ft | 160 kts | 121° |
| 2026-05-03 21:51 | 21.04963 | -86.87321 | 30 ft | 134 kts | 118° |
| 2026-05-03 21:52 | 21.04579 | -86.86707 | 21 ft | 57 kts | 123° |
| 2026-05-03 21:52 | 21.04482 | -86.86552 | 22 ft | 28 kts | 125° |
| 2026-05-03 21:52 | 21.04300 | -86.86400 | 19 ft | 21 kts | 160° |
| 2026-05-03 21:52 | 21.04241 | -86.86369 | 19 ft | 5 kts | 147° |
| 2026-05-03 21:53 | 21.04226 | -86.86357 | 19 ft | 3 kts | 146° |